< < Back
Terminal Aerodrome Forecast


Current Version              Previous Versions:   1  2  3  4  5  6  7  8  9  

Terminal Aerodrome Forecast

550
FTUS44 KMOB 040539
TAFMOB
TAF
KMOB 040539Z 0406/0506 20007KT P6SM FEW120 BKN250
     FM041400 24007KT P6SM VCSH SCT040 BKN200
      TEMPO 0419/0423 4SM TSRA BKN030CB
     FM042300 19006KT P6SM VCTS SCT035CB BKN200=

Latest METAR

799
SAUS80 KWBC 050000
MTRMOB
METAR KMOB 042356Z 24004KT 10SM VCTS -RA FEW015 SCT070 SCT200 22/21
A3009 RMK AO2 LTG DSNT SE AND S RAB36 SLP188 P0000 60002
T02220211 10328 20222 51017


USA.gov is the U.S. government's official web portal to all federal, state and local government web resources and services.